Terminal Aerodrome Forecast
Issued by NWS

Home | Current Version | Previous Version | Text Only | Print | Product List | Glossary On
Versions: 1 2 3 4 5 6 7 8 9 10 11 12 13
865
FTUS46 KSTO 140545
TAFSAC
TAF
KSAC 140545Z 1406/1506 32007KT P6SM FEW250
     FM140900 VRB02KT 2SM BR SCT250
      TEMPO 1412/1416 1/2SM FG OVC003
     FM141800 33010G15KT P6SM FEW250
     FM142000 33015G20KT P6SM FEW250
     FM150300 33010KT P6SM SKC=

USA.gov is the U.S. government's official web portal to all federal, state and local government web resources and services.